Tiempo atmosférico en la estación meteorológica de Cabo Vilan, A Coruña (50 m.)



Fecha
DESCASC
Temp. máxima en grados centígrados (hora)
DESCASC
Temp. mínima en grados centígrados (hora)
DESCASC
Temp. media en grados centígrados
DESCASC
Racha de viento máxima en m/sg (hora)
DESCASC
Velocidad máxima media en intervalos de 10 minutos(hora)
DESCASC
Precipitaciones diarias en mm
DESCASC
Precipitaciones de 00:00 a 06:00 en mm
DESCASC
Precipitaciones de 06:00 a 12:00 en mm
DESCASC
Precipitaciones de 12:00 a 18:00 en mm
DESCASC
Precipitaciones de 18:00 a 24:00 en mm
DESCASC
23-06-2019 20.3 (14:30) 15 (00:00) 17.6 15.56 (01:40) 11.39 (01:40) 4.3 4.3 0 0 0
22-06-2019 19.2 (15:20) 14.1 (21:10) 16.7 15.56 (17:00) 11.39 (18:00) 7.8 0 0 0 7.8
21-06-2019 17.9 (16:20) 14.2 (06:40) 16 11.11 (00:30) 9.72 (16:00) 0 0 0 0 0
20-06-2019 17.4 (14:50) 14.4 (00:00) 15.9 13.33 (20:40) 11.67 (20:10) 0 0 0 0 0
19-06-2019 -- (--) -- (--) -- 11.67 (03:40) 8.89 (03:40) 2.5 0 2.5 0 0
18-06-2019 -- (--) -- (--) -- 20.56 (15:00) 14.72 (15:00) 21.8 1.7 0.1 18 2
17-06-2019 -- (--) -- (--) -- 6.11 (07:10) 4.72 (07:00) 0 0 0 0 0
16-06-2019 18.8 (14:50) 10.9 (00:00) 14.8 8.06 (21:40) 6.39 (22:00) 0 0 0 0 0
15-06-2019 19.2 (16:20) 12.4 (00:00) 15.8 8.61 (13:40) 6.94 (13:30) 0 0 0 0 0
14-06-2019 18.9 (17:10) 10 (00:00) 14.4 7.5 (20:20) 5.83 (15:20) 0.6 0 0 0 0.6
13-06-2019 17.7 (17:00) 10.1 (00:00) 13.9 5.28 (15:20) 3.61 (14:30) 1.3 0.1 1.2 0 0
12-06-2019 17.9 (15:30) 12.1 (00:00) 15 8.06 (04:20) 6.39 (00:10) 0.3 0 0.3 0 0
11-06-2019 16.5 (15:50) 12.5 (00:00) 14.5 12.78 (05:10) 11.11 (05:20) 0 0 0 0 0
10-06-2019 18 (15:10) 10.6 (00:00) 14.3 8.89 (22:50) 7.22 (23:00) 0 0 0 0 0
09-06-2019 16.7 (14:20) 11.7 (00:00) 14.2 10 (14:30) 7.78 (13:40) 0 0 0 0 0
08-06-2019 16.8 (16:00) 9.7 (00:00) 13.2 6.67 (21:30) 6.11 (21:30) 0 0 0 0 0
07-06-2019 17.3 (16:00) 10.7 (00:00) 14 12.78 (01:00) 8.61 (01:00) 0.7 0.6 0 0.1 0
06-06-2019 15.1 (14:40) 10.4 (00:00) 12.8 28.33 (14:20) 20 (14:10) 35.9 0.5 18.4 14.7 2.3
05-06-2019 16.8 (14:20) 11.5 (00:00) 14.1 12.5 (19:50) 10 (20:00) 3.1 2.6 0.1 0.4 0
04-06-2019 18.3 (14:30) 12.2 (00:00) 15.2 18.89 (06:30) 11.39 (06:30) 4.3 1.3 2.4 0 0.6
03-06-2019 18.2 (18:50) 13.5 (00:00) 15.9 7.78 (23:40) 6.11 (08:10) 5.4 4.4 1 0 0
02-06-2019 20.1 (14:10) 13.2 (00:00) 16.7 8.89 (15:00) 7.22 (15:50) 0.7 0 0 0 0.7
01-06-2019 23.3 (17:20) 14.3 (00:00) 18.8 7.5 (18:10) 5.28 (18:10) 0 0 0 0 0
31-05-2019 27.9 (11:50) 14.4 (00:00) 21.1 6.67 (08:40) 5 (08:40) 0 0 0 0 0
30-05-2019 21.7 (17:10) 13.6 (00:00) 17.7 7.78 (04:50) 6.39 (00:40) 0 0 0 0 0
29-05-2019 16.6 (15:30) 12.2 (00:00) 14.4 15 (13:20) 11.94 (14:00) 0 0 0 0 0
28-05-2019 16.5 (14:20) 13 (00:00) 14.8 13.33 (19:40) 11.39 (20:00) 0 0 0 0 0
27-05-2019 15.7 (15:40) 13.2 (00:00) 14.4 12.78 (23:40) 11.11 (19:40) 0.2 0 0.2 0 0
26-05-2019 17 (15:20) 13.5 (00:00) 15.3 11.94 (05:50) 9.44 (01:20) 0 0 0 0 0

Gráficas

Temp. máximas Temp. mínimas Temp. medias Precipitaciones Rachas de viento máximas Velocidades máximas media en intervalos de 10 minutos

Datos horarios

Fecha y hora oficial Temperatura (ºC) Velocidad del viento (km/h) Dirección del viento Racha (km/h) Dirección de racha Precipitación (mm) Presión (hPa) Tendencia (hPa) Humedad (%)
2019-06-24 23:00:00 17 8 Nordeste 12 Sudoeste 0 -- -- 95
2019-06-24 22:00:00 17 11 Sudoeste 21 Sudoeste 0 -- -- 94
2019-06-24 21:00:00 17.9 18 Sudoeste 28 Sudoeste 0 -- -- 88
2019-06-24 20:00:00 18.9 23 Sudoeste 33 Sudoeste 0 -- -- 85
2019-06-24 19:00:00 19 28 Sudoeste 35 Sudoeste 0 -- -- 80
2019-06-24 18:00:00 19.6 25 Sudoeste 40 Sudoeste 0 -- -- 79
2019-06-24 17:00:00 19.4 32 Sudoeste 39 Sudoeste 0 -- -- 85
2019-06-24 16:00:00 19.3 27 Sudoeste 36 Sudoeste 0 -- -- 85
2019-06-24 15:00:00 18.9 27 Sudoeste 37 Sudoeste 0 -- -- 88
2019-06-24 14:00:00 18.5 26 Sudoeste 33 Sudoeste 0 -- -- 88
2019-06-24 13:00:00 19.4 18 Sudoeste 25 Sudoeste 0 -- -- 85
2019-06-24 12:00:00 19 17 Sudoeste 23 Sudoeste 0 -- -- 94
2019-06-24 11:00:00 18.1 10 Sudoeste 19 Sur 0 -- -- 96
2019-06-24 10:00:00 17.5 12 Sur 21 Sur 0 -- -- 98
2019-06-24 09:00:00 15.9 14 Sur 23 Sur 0 -- -- 99
2019-06-24 08:00:00 15.1 13 Sur 19 Sur 0 -- -- 99
2019-06-24 07:00:00 14.9 15 Sur 21 Sur 0 -- -- 99
2019-06-24 06:00:00 15.2 16 Sur 25 Sur 0 -- -- 99
2019-06-24 05:00:00 15.5 19 Sur 24 Sur 0 -- -- 99
2019-06-24 04:00:00 15.5 18 Sur 23 Sur 0 -- -- 99
2019-06-24 03:00:00 15.7 18 Sur 22 Sudeste 0 -- -- 99
2019-06-24 02:00:00 15.9 16 Sur 27 Sudeste 0 -- -- 99
2019-06-24 01:00:00 15.9 14 Sur 20 Sur 0 -- -- 99
2019-06-24 00:00:00 15.9 15 Sur 21 Sur 0 -- -- 99
2019-06-23 23:00:00 16 14 Sur 22 Sur 0 -- -- 94
2019-06-23 22:00:00 16.6 14 Sur 26 Sudoeste 0 -- -- 93
2019-06-23 21:00:00 18.2 21 Sudoeste 34 Sudoeste 0 -- -- 90
2019-06-23 20:00:00 19.2 26 Sudoeste 37 Sudoeste 0 -- -- 90
2019-06-23 19:00:00 19.3 28 Sudoeste 37 Sudoeste 0 -- -- 90
2019-06-23 18:00:00 18.2 20 Sur 31 Sudoeste 0 -- -- 87
2019-06-23 17:00:00 18.1 22 Sur 38 Sudoeste 0 -- -- 83
2019-06-23 16:00:00 19.4 23 Sur 38 Sur 0 -- -- 78
2019-06-23 15:00:00 19.2 26 Sur 37 Sur 0 -- -- 81
2019-06-23 14:00:00 19.6 28 Sur 37 Sur 0 -- -- 78
2019-06-23 13:00:00 18.5 26 Sur 36 Sur 0 -- -- 85
2019-06-23 12:00:00 18.1 25 Sur 32 Sur 0 -- -- 90
2019-06-23 11:00:00 17.5 23 Sur 33 Sur 0 -- -- 95
2019-06-23 10:00:00 17.1 20 Sur 32 Sur 0 -- -- 99
2019-06-23 09:00:00 16.3 20 Sur 27 Sur 0 -- -- 99
2019-06-23 08:00:00 15.2 17 Sur 22 Sur 0 -- -- 99
2019-06-23 07:00:00 15.2 20 Sur 34 Sur 0 -- -- 99
2019-06-23 06:00:00 15.8 23 Sudoeste 32 Sudoeste 0.1 -- -- 99
2019-06-23 05:00:00 15.9 17 Sur 28 Sur 0.6 -- -- 99
2019-06-23 04:00:00 15.8 21 Sur 49 Sur 0.4 -- -- 99
2019-06-23 03:00:00 15.9 37 Sur 55 Sur 0.2 -- -- 99
2019-06-23 02:00:00 15.8 37 Sur 56 Sur 0.5 -- -- 99
2019-06-23 01:00:00 15.1 22 Sur 43 Sudeste 2.5 -- -- 99
2019-06-23 00:00:00 15 25 Sur 45 Sudeste 2.1 -- -- 99
2019-06-22 23:00:00 14.8 21 Sur 42 Sur 0.6 -- -- 99
2019-06-22 22:00:00 14.5 23 Sur 45 Sur 1.6 -- -- 95
2019-06-22 21:00:00 14.3 23 Sur 41 Sur 1.8 -- -- 91
2019-06-22 20:00:00 14.8 25 Sur 49 Sur 1.1 -- -- 89
2019-06-22 19:00:00 14.7 32 Sur 52 Sur 0.6 -- -- 77
2019-06-22 18:00:00 18.2 41 Sur 55 Sur 0 -- -- 52
2019-06-22 17:00:00 18.5 38 Sur 56 Sur 0 -- -- 49
2019-06-22 16:00:00 18.8 37 Sur 54 Sur 0 -- -- 49
2019-06-22 15:00:00 18.5 26 Sur 48 Sur 0 -- -- 56
2019-06-22 14:00:00 18 29 Sur 42 Sur 0 -- -- 58
2019-06-22 13:00:00 18.2 29 Sur 40 Sur 0 -- -- 63
2019-06-22 12:00:00 17.1 24 Sur 32 Sur 0 -- -- 75
2019-06-22 11:00:00 16 21 Sur 30 Sur 0 -- -- 90
2019-06-22 10:00:00 16.2 16 Sudoeste 22 Sudoeste 0 -- -- 97
2019-06-22 09:00:00 15.9 14 Sur 29 Sur 0 -- -- 97
2019-06-22 08:00:00 15.6 20 Sur 28 Sur 0 -- -- 97
2019-06-22 07:00:00 15.4 19 Sur 26 Sur 0 -- -- 97
2019-06-22 06:00:00 15.6 16 Sur 23 Sudeste 0 -- -- 91
2019-06-22 05:00:00 15.7 12 Sur 14 Sur 0 -- -- 87
2019-06-22 04:00:00 16.5 12 Sur 24 Sur 0 -- -- 81
2019-06-22 03:00:00 16.5 13 Sudeste 21 Sudeste 0 -- -- 83
2019-06-22 02:00:00 15.8 8 Sudeste 12 Sudeste 0 -- -- 88
2019-06-22 01:00:00 15.6 6 Este 9 Este 0 -- -- 86
2019-06-22 00:00:00 16.1 4 Este 16 Nordeste 0 -- -- 83
2019-06-21 23:00:00 16 8 Nordeste 18 Este 0 -- -- 86
2019-06-21 22:00:00 16.1 14 Este 17 Norte 0 -- -- 89
2019-06-21 21:00:00 16.1 14 Nordeste 27 Nordeste 0 -- -- 92
2019-06-21 20:00:00 17.1 20 Nordeste 31 Nordeste 0 -- -- 84
2019-06-21 19:00:00 17.2 27 Nordeste 37 Nordeste 0 -- -- 82
2019-06-21 18:00:00 17.3 31 Nordeste 40 Nordeste 0 -- -- 82
2019-06-21 17:00:00 17.5 30 Nordeste 40 Nordeste 0 -- -- 82
2019-06-21 16:00:00 17.5 35 Nordeste 39 Nordeste 0 -- -- 78
2019-06-21 15:00:00 17.4 33 Nordeste 38 Nordeste 0 -- -- 80
2019-06-21 14:00:00 17.6 27 Nordeste 38 Nordeste 0 -- -- 81
2019-06-21 13:00:00 16.9 30 Nordeste 38 Nordeste 0 -- -- 82
2019-06-21 12:00:00 17 28 Nordeste 34 Nordeste 0 -- -- 88
2019-06-21 11:00:00 16.3 26 Nordeste 31 Nordeste 0 -- -- 91
2019-06-21 10:00:00 15.6 20 Nordeste 30 Nordeste 0 -- -- 92
2019-06-21 09:00:00 15.2 15 Nordeste 27 Norte 0 -- -- 97
2019-06-21 08:00:00 15 15 Nordeste 34 Nordeste 0 -- -- 99
2019-06-21 07:00:00 14.3 20 Nordeste 30 Nordeste 0 -- -- 99
2019-06-21 06:00:00 14.4 19 Nordeste 37 Nordeste 0 -- -- 99
2019-06-21 05:00:00 14.5 27 Nordeste 35 Nordeste 0 -- -- 99
2019-06-21 04:00:00 14.5 24 Nordeste 34 Nordeste 0 -- -- 99
2019-06-21 03:00:00 14.4 26 Nordeste 35 Nordeste 0 -- -- 99
2019-06-21 02:00:00 14.6 24 Nordeste 37 Nordeste 0 -- -- 98
2019-06-21 01:00:00 14.7 30 Nordeste 40 Nordeste 0 -- -- 97
2019-06-21 00:00:00 14.6 29 Nordeste 39 Nordeste 0 -- -- 95
2019-06-20 23:00:00 14.7 28 Nordeste 44 Nordeste 0 -- -- 94
2019-06-20 22:00:00 15 36 Nordeste 46 Nordeste 0 -- -- 92
2019-06-20 21:00:00 15.2 39 Nordeste 48 Nordeste 0 -- -- 88
2019-06-20 20:00:00 15.8 40 Nordeste 45 Nordeste 0 -- -- 88
2019-06-20 19:00:00 -- 33 Nordeste 39 Nordeste 0 -- -- --
2019-06-20 18:00:00 -- 31 Nordeste 38 Nordeste 0 -- -- --
2019-06-20 17:00:00 -- 30 Nordeste 35 Nordeste 0 -- -- --
2019-06-20 16:00:00 -- 31 Nordeste 39 Nordeste 0 -- -- --
2019-06-20 15:00:00 -- 32 Nordeste 39 Nordeste 0 -- -- --
2019-06-20 14:00:00 -- 31 Nordeste 38 Nordeste 0 -- -- --
2019-06-20 13:00:00 -- 32 Nordeste 39 Nordeste 0 -- -- --
2019-06-20 12:00:00 -- 32 Nordeste 38 Nordeste -- -- -- --
2019-06-20 11:00:00 -- 30 Nordeste 39 Nordeste -- -- -- --
2019-06-20 10:00:00 -- 31 Nordeste 40 Nordeste -- -- -- --
2019-06-20 09:00:00 14.8 28 Nordeste 36 Nordeste 0 -- -- 99
2019-06-20 08:00:00 14.5 28 Nordeste 37 Nordeste 0 -- -- 99
2019-06-20 07:00:00 14.4 33 Nordeste 39 Nordeste 0 -- -- 99
2019-06-20 06:00:00 14.7 26 Nordeste 34 Nordeste 0 -- -- 99
2019-06-20 05:00:00 14.7 28 Nordeste 33 Nordeste 0 -- -- 99
2019-06-20 04:00:00 14.9 23 Nordeste 26 Nordeste 0 -- -- 99
2019-06-20 03:00:00 15 20 Nordeste 23 Norte 0 -- -- 99
2019-06-20 02:00:00 15.1 16 Nordeste 22 Nordeste 0 -- -- 99
2019-06-20 01:00:00 15 19 Nordeste 23 Nordeste 0 -- -- 99
2019-06-20 00:00:00 15 18 Nordeste 21 Nordeste 0 -- -- 99
2019-06-19 23:00:00 15 17 Nordeste 21 Nordeste 0 -- -- 99
2019-06-19 22:00:00 15.3 17 Nordeste 21 Nordeste 0 -- -- 99
2019-06-19 21:00:00 15.7 13 Nordeste 17 Nordeste 0 -- -- 99
2019-06-19 20:00:00 16 14 Nordeste 18 Nordeste 0 -- -- 99
2019-06-19 19:00:00 16.4 9 Norte 14 Norte 0 -- -- 99
2019-06-19 18:00:00 17.1 10 Norte 15 Norte 0 -- -- 97
2019-06-19 17:00:00 18.2 8 Oeste 13 Oeste 0 -- -- 97
2019-06-19 16:00:00 18.1 11 Sudoeste 17 Sudoeste 0 -- -- 99
2019-06-19 15:00:00 18.4 7 Oeste 12 Oeste 0 -- -- 99
2019-06-19 14:00:00 17.7 8 Noroeste 13 Oeste 0 -- -- 99
2019-06-19 13:00:00 17.9 9 Oeste 14 Sudoeste 0 -- -- 99
2019-06-19 12:00:00 17.2 10 Sudoeste 14 Sudoeste 0 -- -- 99
2019-06-19 11:00:00 16.5 6 Sudoeste 14 Sur 0 -- -- 99
2019-06-19 10:00:00 15.5 8 Sudoeste 21 Sur 1.2 -- -- 99
2019-06-19 09:00:00 15.6 15 Sudoeste 20 Sudoeste 1.3 -- -- 99
2019-06-19 08:00:00 15.4 16 Sur 31 Sudoeste 0 -- -- 99
2019-06-19 07:00:00 15.3 21 Sudoeste 35 Sur 0 -- -- 99
2019-06-19 06:00:00 15.3 15 Sur 31 Sur 0 -- -- 99
2019-06-19 05:00:00 15.5 22 Sur 35 Sudoeste 0 -- -- 99
2019-06-19 04:00:00 15.6 30 Sudoeste 42 Sudoeste 0 -- -- 99
2019-06-19 03:00:00 15.6 30 Sudoeste 39 Sudoeste 0 -- -- 99
2019-06-19 02:00:00 15.5 27 Sudoeste 40 Sur 0 -- -- 99
2019-06-19 01:00:00 15.6 30 Sudoeste 42 Sudoeste 0 -- -- 99
2019-06-19 00:00:00 15.9 31 Sudoeste 45 Sudoeste 0.4 -- -- 99
2019-06-18 23:00:00 15.8 30 Sudoeste 50 Sudoeste 0.1 -- -- 99
2019-06-18 22:00:00 15.7 33 Sudoeste 54 Sudoeste 0 -- -- 99
2019-06-18 21:00:00 16.2 45 Sudoeste 56 Sur 0.6 -- -- 99
2019-06-18 20:00:00 16.3 41 Sur 63 Sur 0.9 -- -- 99
2019-06-18 19:00:00 16.8 42 Sur 60 Sur 0 -- -- 99
2019-06-18 18:00:00 17.6 40 Sur 60 Sudoeste 0 -- -- 99
2019-06-18 17:00:00 18.1 42 Sudoeste 66 Sudoeste 0 -- -- 99
2019-06-18 16:00:00 16.3 48 Sur 72 Sur 2.9 -- -- 99
2019-06-18 15:00:00 16.2 53 Sur 74 Sur 5.9 -- -- 99
2019-06-18 14:00:00 16.1 41 Sur 64 Sur 6.7 -- -- 99
2019-06-18 13:00:00 16 36 Sur 52 Sur 2.5 -- -- 99
2019-06-18 12:00:00 16.2 29 Sur 50 Sur 0 -- -- 98
2019-06-18 11:00:00 15.6 22 Sur 42 Sur 0.1 -- -- 98
2019-06-18 10:00:00 15.8 22 Sur 44 Sudeste 0 -- -- 89
2019-06-18 09:00:00 15.1 24 Sur 38 Sudeste 0 -- -- 90
2019-06-18 08:00:00 13.4 11 Sur 20 Sudeste 0 -- -- 92
2019-06-18 07:00:00 12.9 12 Sur 25 Sur 0 -- -- 84
2019-06-18 06:00:00 12.7 13 Sur 29 Sur 0.4 -- -- 88
2019-06-18 05:00:00 13 16 Sur 31 Sur 0.5 -- -- 93
2019-06-18 04:00:00 13.8 21 Sur 29 Sur 0.4 -- -- 94
2019-06-18 03:00:00 14.3 13 Sur 19 Sudeste 0.1 -- -- 96
2019-06-18 02:00:00 14.2 10 Sudeste 14 Este 0 -- -- 99
2019-06-18 01:00:00 14.1 5 Este 9 Sudoeste 0.3 -- -- 99
2019-06-18 00:00:00 14.3 0 Calma -- -- 0 -- -- 99
2019-06-17 23:00:00 14.3 3 Sudoeste 17 Nordeste 0 -- -- 99
2019-06-17 22:00:00 14.7 0 Calma 9 Sudoeste 0 -- -- 98
2019-06-17 21:00:00 15.5 7 Oeste 9 Oeste 0 -- -- 94
2019-06-17 20:00:00 15.8 2 Noroeste 8 Norte 0 -- -- 92
2019-06-17 19:00:00 16.5 4 Oeste 13 Oeste 0 -- -- 90
2019-06-17 18:00:00 16.3 0 Calma 11 Sudoeste 0 -- -- 91
2019-06-17 17:00:00 16.7 3 Oeste 21 Sudoeste 0 -- -- 95
2019-06-17 16:00:00 16.7 10 Sudoeste 17 Nordeste 0 -- -- 91
2019-06-17 15:00:00 16.6 0 Calma 13 Sudoeste 0 -- -- 92
2019-06-17 14:00:00 16.4 0 Calma 7 Norte 0 -- -- 90
2019-06-17 13:00:00 16.3 7 Nordeste 11 Norte 0 -- -- 96
2019-06-17 12:00:00 16.3 10 Norte 17 Nordeste 0 -- -- 98
2019-06-17 11:00:00 15.7 0 Calma 10 Nordeste 0 -- -- 99
2019-06-17 10:00:00 15.6 3 Nordeste 18 Nordeste 0 -- -- 99
2019-06-17 09:00:00 15.2 11 Nordeste 19 Nordeste 0 -- -- 99
2019-06-17 08:00:00 14.5 12 Nordeste 22 Nordeste 0 -- -- 99
2019-06-17 07:00:00 14.2 17 Nordeste 22 Nordeste 0 -- -- 99
2019-06-17 06:00:00 13.7 9 Nordeste 15 Norte 0 -- -- 99
2019-06-17 05:00:00 13.6 11 Nordeste 18 Nordeste 0 -- -- 99
2019-06-17 04:00:00 13.9 13 Nordeste 19 Nordeste 0 -- -- 99
2019-06-17 03:00:00 13.9 7 Nordeste 19 Nordeste 0 -- -- 98
2019-06-17 02:00:00 14.2 12 Nordeste 18 Nordeste 0 -- -- 97
2019-06-17 01:00:00 14.2 11 Nordeste 19 Nordeste 0 -- -- 94
2019-06-17 00:00:00 14.5 13 Nordeste 25 Nordeste 0 -- -- 90
2019-06-16 23:00:00 14.7 15 Nordeste 27 Nordeste 0 -- -- 87
2019-06-16 22:00:00 15.3 23 Nordeste 29 Nordeste 0 -- -- 81
2019-06-16 21:00:00 16.1 21 Norte 26 Norte 0 -- -- 83
2019-06-16 20:00:00 16.7 19 Norte 24 Norte 0 -- -- 80
2019-06-16 19:00:00 17 18 Norte 24 Norte 0 -- -- 72
2019-06-16 18:00:00 18 18 Norte 22 Norte 0 -- -- 69
2019-06-16 17:00:00 18.6 15 Norte 18 Nordeste 0 -- -- 72
2019-06-16 16:00:00 18.7 17 Norte 21 Norte 0 -- -- 73
2019-06-16 15:00:00 18.5 16 Norte 21 Norte 0 -- -- 74
2019-06-16 14:00:00 18.2 16 Norte 19 Norte 0 -- -- 81
2019-06-16 13:00:00 18 15 Norte 18 Norte 0 -- -- 83
2019-06-16 12:00:00 17.8 14 Norte 17 Norte 0 -- -- 75
2019-06-16 11:00:00 17.6 11 Nordeste 13 Nordeste 0 -- -- 71
2019-06-16 10:00:00 16.3 3 Norte 13 Este 0 -- -- 87
2019-06-16 09:00:00 14.9 10 Este 14 Sudeste 0 -- -- 99
2019-06-16 08:00:00 12.5 13 Sudeste 14 Sudeste 0 -- -- 99
2019-06-16 07:00:00 11.3 5 Sudeste 10 Este 0 -- -- 99
2019-06-16 06:00:00 11.4 9 Sudeste 13 Sudeste 0 -- -- 99
2019-06-16 05:00:00 11.5 9 Sudeste 13 Sudeste 0 -- -- 99
2019-06-16 04:00:00 11.5 10 Sudeste 12 Sudeste 0 -- -- 99
2019-06-16 03:00:00 12.1 6 Sudeste 10 Sudeste 0 -- -- 97
2019-06-16 02:00:00 13 5 Sur 12 Sudeste 0 -- -- 96
2019-06-16 01:00:00 14.1 6 Sur 9 Sur 0 -- -- 94
2019-06-16 00:00:00 13.6 8 Sur 12 Sudoeste 0 -- -- 97
2019-06-15 23:00:00 13.6 11 Sudoeste 13 Sudoeste 0 -- -- 95
2019-06-15 22:00:00 15 11 Sudoeste 18 Sudoeste 0 -- -- 87
2019-06-15 21:00:00 16.4 16 Sudoeste 22 Sudoeste 0 -- -- 82
2019-06-15 20:00:00 17.5 17 Sudoeste 24 Sudoeste 0 -- -- 78
2019-06-15 19:00:00 17 17 Sudoeste 29 Sudoeste 0 -- -- 78
2019-06-15 18:00:00 18.7 24 Sudoeste 31 Sudoeste 0 -- -- 73
2019-06-15 17:00:00 18.4 24 Sudoeste 29 Sudoeste 0 -- -- 72
2019-06-15 16:00:00 18.8 21 Sudoeste 28 Sudoeste 0 -- -- 74
2019-06-15 15:00:00 18.7 22 Sudoeste 31 Sudoeste 0 -- -- 80
2019-06-15 14:00:00 15.2 24 Sudoeste 31 Sudoeste 0 -- -- 84
2019-06-15 13:00:00 17.7 24 Sudoeste 30 Sudoeste 0 -- -- 76
2019-06-15 12:00:00 17.6 21 Sudoeste 29 Sudoeste 0 -- -- 81
2019-06-15 11:00:00 16.1 18 Sudoeste 24 Sudoeste 0 -- -- 84
2019-06-15 10:00:00 16 18 Sudoeste 24 Sudoeste 0 -- -- 85
2019-06-15 09:00:00 14.1 15 Sur 23 Sur 0 -- -- 90
2019-06-15 08:00:00 13.6 13 Sur 20 Sur 0 -- -- 90
2019-06-15 07:00:00 13 15 Sudoeste 23 Sudoeste 0 -- -- 93
2019-06-15 06:00:00 12.8 18 Sudoeste 22 Sudoeste 0 -- -- 91
2019-06-15 05:00:00 12.5 17 Sudoeste 20 Sudoeste 0 -- -- 91
2019-06-15 04:00:00 12.7 13 Sudoeste 21 Sudoeste 0 -- -- 89
2019-06-15 03:00:00 13.3 15 Sudoeste 23 Sudoeste 0 -- -- 89
2019-06-15 02:00:00 13.6 13 Sudoeste 17 Sudoeste 0 -- -- 91
2019-06-15 01:00:00 13.4 12 Oeste 19 Oeste 0 -- -- 91
2019-06-15 00:00:00 14.1 10 Oeste 21 Oeste 0 -- -- 94
2019-06-14 23:00:00 14.1 13 Oeste 20 Oeste 0 -- -- 97
2019-06-14 22:00:00 14.3 12 Sudoeste 17 Oeste 0 -- -- 97
2019-06-14 21:00:00 14.6 14 Sudoeste 27 Sudoeste 0.6 -- -- 95
2019-06-14 20:00:00 16.4 17 Sudoeste 23 Sudoeste 0 -- -- 82
2019-06-14 19:00:00 17.4 18 Sudoeste 23 Sudoeste 0 -- -- 78
2019-06-14 18:00:00 16.5 18 Sudoeste 23 Sudoeste 0 -- -- 78
2019-06-14 17:00:00 18.6 18 Oeste 24 Sudoeste 0 -- -- 72
2019-06-14 16:00:00 18.1 19 Sudoeste 26 Sudoeste 0 -- -- 75
2019-06-14 15:00:00 18.1 20 Sudoeste 24 Sudoeste 0 -- -- 76
2019-06-14 14:00:00 17.1 17 Sudoeste 21 Sudoeste 0 -- -- 80
2019-06-14 13:00:00 16.7 11 Sudoeste 16 Oeste 0 -- -- 79
2019-06-14 12:00:00 16.4 9 Oeste 14 Oeste 0 -- -- 78
2019-06-14 11:00:00 16 8 Sudoeste 12 Oeste 0 -- -- 76
2019-06-14 10:00:00 15.7 2 Sudoeste 7 Sudoeste 0 -- -- 78
2019-06-14 09:00:00 14.3 0 Calma 13 Sudeste 0 -- -- 87
2019-06-14 08:00:00 11.5 12 Sudeste 14 Sudeste 0 -- -- 95
2019-06-14 07:00:00 10.3 6 Sudeste 13 Sudeste 0 -- -- 96
2019-06-14 06:00:00 10 7 Sudeste 11 Sudeste 0 -- -- 94
2019-06-14 05:00:00 11.1 0 Calma 8 Sudeste 0 -- -- 93
2019-06-14 04:00:00 11.6 0 Calma 14 Sudeste 0 -- -- 93
2019-06-14 03:00:00 11.1 0 Calma 10 Sudeste 0 -- -- 90
2019-06-14 02:00:00 11.7 3 Sudeste 10 Sudeste 0 -- -- 89
2019-06-14 01:00:00 12.6 0 Calma 8 Sudeste 0 -- -- 84
2019-06-14 00:00:00 12.6 0 Calma 7 Norte 0 -- -- 82
2019-06-13 23:00:00 12.7 6 Norte 9 Norte 0 -- -- 80
2019-06-13 22:00:00 14.4 3 Norte 9 Norte 0 -- -- 76
2019-06-13 21:00:00 15.4 6 Norte 12 Noroeste 0 -- -- 69
2019-06-13 20:00:00 16.6 8 Noroeste 15 Noroeste 0 -- -- 68
2019-06-13 19:00:00 16.6 8 Noroeste 14 Noroeste 0 -- -- 66
2019-06-13 18:00:00 17.1 10 Noroeste 18 Noroeste 0 -- -- 66
2019-06-13 17:00:00 17.4 10 Noroeste 16 Noroeste 0 -- -- 65
2019-06-13 16:00:00 16.7 11 Noroeste 19 Oeste 0 -- -- 68
2019-06-13 15:00:00 16.9 12 Oeste 17 Oeste 0 -- -- 74
2019-06-13 14:00:00 16.5 13 Oeste 18 Oeste 0 -- -- 75
2019-06-13 13:00:00 15.8 8 Oeste 14 Oeste 0 -- -- 81
2019-06-13 12:00:00 14.7 5 Sudoeste 10 Sudoeste 0 -- -- 84
2019-06-13 11:00:00 13.9 3 Sudoeste 8 Oeste 0 -- -- 90
2019-06-13 10:00:00 13.7 3 Sudoeste 10 Sur 0 -- -- 93
2019-06-13 09:00:00 12.5 7 Sur 14 Sudeste 0 -- -- 94
2019-06-13 08:00:00 11.6 8 Sudeste 12 Sudeste 0 -- -- 95
2019-06-13 07:00:00 11.3 7 Sudeste 11 Sudeste 1.2 -- -- 95
2019-06-13 06:00:00 11.2 6 Sudeste 12 Sudeste 0.1 -- -- 92
2019-06-13 05:00:00 10.3 9 Sudeste 12 Sudeste 0 -- -- 91
2019-06-13 04:00:00 11.2 5 Sudeste 9 Sudeste 0 -- -- 87
2019-06-13 03:00:00 11.5 2 Sudeste 7 Sudeste 0 -- -- 85
2019-06-13 02:00:00 11.9 0 Calma 10 Norte 0 -- -- 86
2019-06-13 01:00:00 11.9 8 Norte 12 Norte 0 -- -- 85
2019-06-13 00:00:00 12.3 10 Norte 12 Norte 0 -- -- 84
2019-06-12 23:00:00 12.7 9 Norte 12 Norte 0 -- -- 81
2019-06-12 22:00:00 13.5 10 Norte 14 Norte 0 -- -- 77
2019-06-12 21:00:00 15.3 11 Norte 17 Norte 0 -- -- 73
2019-06-12 20:00:00 15.9 10 Norte 15 Norte 0 -- -- 71
2019-06-12 19:00:00 15.6 6 Norte 16 Noroeste 0 -- -- 69
2019-06-12 18:00:00 16.2 11 Norte 19 Norte 0 -- -- 68
2019-06-12 17:00:00 17 12 Norte 17 Norte 0 -- -- 67
2019-06-12 16:00:00 16.8 12 Norte 18 Oeste 0 -- -- 70
2019-06-12 15:00:00 17.5 10 Noroeste 19 Norte 0 -- -- 71
2019-06-12 14:00:00 15.8 14 Norte 20 Noroeste 0 -- -- 76
2019-06-12 13:00:00 17 10 Norte 15 Norte 0 -- -- 72
2019-06-12 12:00:00 15.8 10 Noroeste 16 Noroeste 0 -- -- 74
2019-06-12 11:00:00 15.5 4 Nordeste 16 Nordeste 0 -- -- 74
2019-06-12 10:00:00 14.6 12 Nordeste 24 Norte 0 -- -- 88
2019-06-12 09:00:00 12.5 11 Norte 23 Noroeste 0.3 -- -- 90
2019-06-12 08:00:00 12.6 10 Norte 18 Norte 0 -- -- 84
2019-06-12 07:00:00 12.1 15 Norte 24 Norte 0 -- -- 84
2019-06-12 06:00:00 12.7 19 Norte 23 Norte 0 -- -- 88
2019-06-12 05:00:00 12.7 14 Norte 29 Norte 0 -- -- 93
2019-06-12 04:00:00 13.1 14 Norte 22 Norte 0 -- -- 90
2019-06-12 03:00:00 13 15 Norte 27 Norte 0 -- -- 90
2019-06-12 02:00:00 13 19 Norte 27 Norte 0 -- -- 89
2019-06-12 01:00:00 13.2 22 Norte 29 Norte 0 -- -- 88
2019-06-12 00:00:00 13.5 22 Norte 32 Norte 0 -- -- 88
2019-06-11 23:00:00 13.4 26 Norte 35 Norte 0 -- -- 87
2019-06-11 22:00:00 13.6 27 Norte 33 Norte 0 -- -- 84
2019-06-11 21:00:00 14.5 27 Norte 37 Norte 0 -- -- 79
2019-06-11 20:00:00 15 28 Norte 40 Norte 0 -- -- 77
2019-06-11 19:00:00 15.3 30 Norte 38 Norte 0 -- -- 75
2019-06-11 18:00:00 15.9 28 Norte 36 Norte 0 -- -- 70
2019-06-11 17:00:00 16 29 Norte 36 Norte 0 -- -- 70
2019-06-11 16:00:00 16.1 31 Nordeste 39 Norte 0 -- -- 70
2019-06-11 15:00:00 16 32 Norte 41 Nordeste 0 -- -- 71
2019-06-11 14:00:00 15.9 35 Nordeste 42 Nordeste 0 -- -- 69
2019-06-11 13:00:00 15.4 33 Nordeste 43 Nordeste 0 -- -- 71
2019-06-11 12:00:00 15.3 35 Norte 44 Nordeste 0 -- -- 71
2019-06-11 11:00:00 15.2 33 Nordeste 44 Nordeste 0 -- -- 75
2019-06-11 10:00:00 14.1 36 Norte 44 Nordeste 0 -- -- 77
2019-06-11 09:00:00 13.9 37 Nordeste 45 Norte 0 -- -- 78
2019-06-11 08:00:00 13.1 38 Norte 46 Nordeste 0 -- -- 79
2019-06-11 07:00:00 12.9 37 Norte 44 Norte 0 -- -- 83
2019-06-11 06:00:00 12.7 39 Nordeste 46 Nordeste 0 -- -- 87
2019-06-11 05:00:00 12.9 32 Norte 41 Norte 0 -- -- 97
2019-06-11 04:00:00 12.6 32 Norte 40 Norte 0 -- -- 98
2019-06-11 03:00:00 13.2 23 Norte 31 Norte 0 -- -- 94
2019-06-11 02:00:00 13 17 Norte 24 Norte 0 -- -- 94
2019-06-11 01:00:00 13 15 Norte 22 Noroeste 0 -- -- 90
2019-06-11 00:00:00 12.8 18 Norte 29 Norte 0 -- -- 94
2019-06-10 23:00:00 13.2 26 Norte 32 Norte 0 -- -- 93
2019-06-10 22:00:00 14.1 10 Norte 13 Norte 0 -- -- 80
2019-06-10 21:00:00 14.5 9 Norte 12 Norte 0 -- -- 78
2019-06-10 20:00:00 15.1 7 Noroeste 13 Oeste 0 -- -- 75
2019-06-10 19:00:00 15.7 6 Noroeste 11 Noroeste 0 -- -- 74
2019-06-10 18:00:00 16.1 7 Noroeste 12 Oeste 0 -- -- 72
2019-06-10 17:00:00 16.5 8 Oeste 13 Oeste 0 -- -- 72
2019-06-10 16:00:00 16.8 8 Noroeste 14 Oeste 0 -- -- 70
2019-06-10 15:00:00 17.8 8 Norte 13 Noroeste 0 -- -- 73
2019-06-10 14:00:00 16.1 8 Oeste 12 Oeste 0 -- -- 73
2019-06-10 13:00:00 16.8 7 Noroeste 14 Noroeste 0 -- -- 71
2019-06-10 12:00:00 16.4 6 Noroeste 11 Noroeste 0 -- -- 73
2019-06-10 11:00:00 16.2 4 Noroeste 10 Sudoeste 0 -- -- 78
2019-06-10 10:00:00 15.3 2 Oeste 7 Oeste 0 -- -- 84
2019-06-10 09:00:00 14.3 0 Calma 9 Sudeste 0 -- -- 92
2019-06-10 08:00:00 11.9 0 Calma 9 Sudeste 0 -- -- 94
2019-06-10 07:00:00 10.7 6 Sudeste 10 Sudeste 0 -- -- 94
2019-06-10 06:00:00 11.9 0 Calma 4 Este 0 -- -- 91
2019-06-10 05:00:00 11.8 3 Este 7 Sudeste 0 -- -- 91
2019-06-10 04:00:00 12 0 Calma 6 Este 0 -- -- 91
2019-06-10 03:00:00 12 0 Calma 8 Este 0 -- -- 90
2019-06-10 02:00:00 11.7 5 Este 14 Nordeste 0 -- -- 90
2019-06-10 01:00:00 12.7 10 Nordeste 19 Nordeste 0 -- -- 85
2019-06-10 00:00:00 13.2 14 Nordeste 21 Nordeste 0 -- -- 82
2019-06-09 23:00:00 13.3 18 Nordeste 22 Nordeste 0 -- -- 84
2019-06-09 22:00:00 13.8 19 Nordeste 23 Nordeste 0 -- -- 80
2019-06-09 21:00:00 14.5 20 Norte 24 Nordeste 0 -- -- 76
2019-06-09 20:00:00 15.2 21 Nordeste 25 Nordeste 0 -- -- 74
2019-06-09 19:00:00 15.7 22 Nordeste 28 Nordeste 0 -- -- 73
2019-06-09 18:00:00 15.7 24 Nordeste 29 Norte 0 -- -- 72
2019-06-09 17:00:00 16 24 Nordeste 30 Nordeste 0 -- -- 72
2019-06-09 16:00:00 16.4 25 Nordeste 29 Norte 0 -- -- 72
2019-06-09 15:00:00 16.7 25 Nordeste 73 Nordeste 0 -- -- 72
2019-06-09 14:00:00 16.2 26 Nordeste 32 Norte 0 -- -- 76
2019-06-09 13:00:00 15.9 26 Nordeste 32 Nordeste 0 -- -- 80
2019-06-09 12:00:00 15.7 26 Nordeste 31 Nordeste 0 -- -- 84
2019-06-09 11:00:00 14.9 22 Nordeste 30 Nordeste 0 -- -- 91
2019-06-09 10:00:00 13.6 18 Nordeste 22 Nordeste 0 -- -- 97
2019-06-09 09:00:00 13 12 Nordeste 15 Nordeste 0 -- -- 96
2019-06-09 08:00:00 12.5 4 Nordeste 11 Nordeste 0 -- -- 96
2019-06-09 07:00:00 11.9 6 Nordeste 10 Este 0 -- -- 94
2019-06-09 06:00:00 12.1 9 Nordeste 14 Nordeste 0 -- -- 94
2019-06-09 05:00:00 12.3 4 Nordeste 9 Nordeste 0 -- -- 94
2019-06-09 04:00:00 12.5 8 Nordeste 12 Nordeste 0 -- -- 94
2019-06-09 03:00:00 12.1 10 Nordeste 14 Nordeste 0 -- -- 94
2019-06-09 02:00:00 11.8 7 Nordeste 19 Nordeste 0 -- -- 93
2019-06-09 01:00:00 12 13 Nordeste 19 Nordeste 0 -- -- 91
2019-06-09 00:00:00 12.1 13 Nordeste 22 Nordeste 0 -- -- 88
2019-06-08 23:00:00 12.6 13 Nordeste 24 Nordeste 0 -- -- 83
2019-06-08 22:00:00 13.4 19 Nordeste 24 Nordeste 0 -- -- 81
2019-06-08 21:00:00 13.9 20 Nordeste 23 Nordeste 0 -- -- 80
2019-06-08 20:00:00 15 19 Norte 23 Norte 0 -- -- 74
2019-06-08 19:00:00 15 19 Norte 24 Norte 0 -- -- 74
2019-06-08 18:00:00 15.8 20 Norte 23 Norte 0 -- -- 72
2019-06-08 17:00:00 16.3 18 Norte 21 Norte 0 -- -- 73
2019-06-08 16:00:00 16.6 12 Norte 14 Norte 0 -- -- 74
2019-06-08 15:00:00 15.2 9 Nordeste 12 Norte 0 -- -- 79
2019-06-08 14:00:00 14.9 8 Norte 11 Norte 0 -- -- 78
2019-06-08 13:00:00 15 8 Norte 10 Norte 0 -- -- 76
2019-06-08 12:00:00 15.6 0 Calma 5 Este 0 -- -- 74
2019-06-08 11:00:00 14.1 4 Sudeste 9 Sudeste 0 -- -- 82
2019-06-08 10:00:00 12.5 6 Sudeste 10 Sudeste 0 -- -- 89
2019-06-08 09:00:00 11.5 8 Sudeste 13 Sudeste 0 -- -- 90
2019-06-08 08:00:00 10 13 Sudeste 15 Sudeste 0 -- -- 90
2019-06-08 07:00:00 9.9 10 Sudeste 14 Sudeste 0 -- -- 90
2019-06-08 06:00:00 10.4 5 Sudeste 12 Sudeste 0 -- -- 87
2019-06-08 05:00:00 11.1 3 Sur 10 Sudeste 0 -- -- 87
2019-06-08 04:00:00 10.9 4 Sur 13 Sudeste 0 -- -- 87
2019-06-08 03:00:00 11.3 4 Sur 9 Sur 0 -- -- 83
2019-06-08 02:00:00 11.9 6 Sur 13 Sudoeste 0 -- -- 84
2019-06-08 01:00:00 11.8 9 Sudoeste 17 Sudoeste 0 -- -- 84
2019-06-08 00:00:00 12.2 13 Oeste 17 Oeste 0 -- -- 84
2019-06-07 23:00:00 12.1 9 Oeste 17 Sudoeste 0 -- -- 81
2019-06-07 22:00:00 13.4 10 Oeste 18 Sudoeste 0 -- -- 77
2019-06-07 21:00:00 13.6 14 Sudoeste 18 Sudoeste 0 -- -- 74
2019-06-07 20:00:00 15.9 13 Sudoeste 19 Oeste 0 -- -- 68
2019-06-07 19:00:00 16.1 17 Oeste 25 Oeste 0 -- -- 62
2019-06-07 18:00:00 16.8 18 Oeste 28 Oeste 0 -- -- 64
2019-06-07 17:00:00 16.8 23 Oeste 29 Sudoeste 0 -- -- 59
2019-06-07 16:00:00 16.8 20 Oeste 28 Oeste 0 -- -- 66
2019-06-07 15:00:00 16.8 22 Oeste 28 Oeste 0 -- -- 62
2019-06-07 14:00:00 15.6 18 Sudoeste 23 Sudoeste 0 -- -- 69
2019-06-07 13:00:00 15.3 19 Sudoeste 42 Oeste 0.1 -- -- 68
2019-06-07 12:00:00 15.7 21 Oeste 30 Oeste 0 -- -- 69
2019-06-07 11:00:00 14.8 22 Oeste 29 Oeste 0 -- -- 74
2019-06-07 10:00:00 14.2 17 Oeste 29 Noroeste 0 -- -- 78
2019-06-07 09:00:00 12.9 21 Noroeste 33 Oeste 0 -- -- 78
2019-06-07 08:00:00 12.3 15 Oeste 33 Oeste 0 -- -- 84
2019-06-07 07:00:00 12.1 25 Noroeste 38 Noroeste 0 -- -- 82
2019-06-07 06:00:00 12.1 23 Noroeste 35 Noroeste 0 -- -- 81
2019-06-07 05:00:00 12 26 Noroeste 37 Noroeste 0 -- -- 84
2019-06-07 04:00:00 12.1 30 Noroeste 40 Noroeste 0 -- -- 84
2019-06-07 03:00:00 12 24 Oeste 37 Oeste 0 -- -- 92
2019-06-07 02:00:00 11.2 22 Oeste 41 Oeste 0.5 -- -- 93
2019-06-07 01:00:00 11.3 31 Sudoeste 46 Sudoeste 0.1 -- -- 99
2019-06-07 00:00:00 11 20 Oeste 47 Oeste 1.8 -- -- 99
2019-06-06 23:00:00 11.3 26 Oeste 55 Oeste 0.5 -- -- 95
2019-06-06 22:00:00 12.2 37 Oeste 47 Oeste 0 -- -- 87
2019-06-06 21:00:00 11.9 33 Oeste 50 Oeste 0 -- -- 89
2019-06-06 20:00:00 12.2 40 Oeste 61 Oeste 0 -- -- 86
2019-06-06 19:00:00 12.3 47 Oeste 66 Oeste 0 -- -- 85
2019-06-06 18:00:00 13.1 50 Sudoeste 77 Sudoeste 0 -- -- 86
2019-06-06 17:00:00 12.8 59 Sudoeste 75 Sudoeste 0 -- -- 87
2019-06-06 16:00:00 13.3 56 Sudoeste 88 Sudoeste 0 -- -- 98
2019-06-06 15:00:00 14.9 72 Sudoeste 102 Sur 1.1 -- -- 99
2019-06-06 14:00:00 13.7 59 Sur 95 Sur 4.8 -- -- 99
2019-06-06 13:00:00 13.1 57 Sur 92 Sur 8.8 -- -- 99
2019-06-06 12:00:00 12.6 59 Sur 90 Sur 4.7 -- -- 99
2019-06-06 11:00:00 12.8 44 Sur 73 Sur 5.5 -- -- 99
2019-06-06 10:00:00 12.5 28 Sur 47 Sur 3.1 -- -- 99
2019-06-06 09:00:00 12.4 26 Sur 42 Sur 3.8 -- -- 99
2019-06-06 08:00:00 12.2 18 Sur 31 Sur 0.9 -- -- 99
2019-06-06 07:00:00 12 21 Sur 31 Sur 0.4 -- -- 99
2019-06-06 06:00:00 11.9 21 Sur 35 Sur 0.2 -- -- 98
2019-06-06 05:00:00 11.8 18 Sur 25 Sur 0.2 -- -- 96
2019-06-06 04:00:00 11.9 19 Sur 25 Sur 0 -- -- 95
2019-06-06 03:00:00 11.4 19 Sur 26 Sur 0 -- -- 93
2019-06-06 02:00:00 11.7 18 Sur 25 Sur 0.1 -- -- 94
2019-06-06 01:00:00 11.9 15 Sur 18 Sur 0 -- -- 90
2019-06-06 00:00:00 12.3 12 Sur 19 Sur 0 -- -- 90
2019-06-05 23:00:00 11.8 14 Sur 26 Sur 0 -- -- 87
2019-06-05 22:00:00 12.2 14 Sudoeste 26 Sudoeste 0 -- -- 84
2019-06-05 21:00:00 12.6 15 Sudoeste 39 Sudoeste 0 -- -- 75
2019-06-05 20:00:00 12.7 36 Sudoeste 45 Sudoeste 0 -- -- 79
2019-06-05 19:00:00 13.9 9 Oeste 18 Oeste 0 -- -- 76
2019-06-05 18:00:00 15.5 17 Oeste 29 Sudoeste 0 -- -- 70
2019-06-05 17:00:00 15 25 Sudoeste 32 Sudoeste 0.1 -- -- 79
2019-06-05 16:00:00 13.6 13 Sudoeste 30 Oeste 0.3 -- -- 75
2019-06-05 15:00:00 15.3 22 Oeste 33 Sudoeste 0 -- -- 66
2019-06-05 14:00:00 16.2 18 Oeste 23 Noroeste 0 -- -- 65
2019-06-05 13:00:00 15.6 14 Oeste 20 Oeste 0 -- -- 71
2019-06-05 12:00:00 15.8 13 Oeste 21 Oeste 0 -- -- 68
2019-06-05 11:00:00 14.7 15 Oeste 31 Noroeste 0 -- -- 73
2019-06-05 10:00:00 13.2 24 Noroeste 35 Noroeste 0.1 -- -- 80
2019-06-05 09:00:00 12.9 19 Noroeste 30 Noroeste 0 -- -- 82
2019-06-05 08:00:00 12.1 18 Noroeste 37 Noroeste 0 -- -- 83
2019-06-05 07:00:00 12.1 16 Noroeste 25 Noroeste 0 -- -- 89
2019-06-05 06:00:00 12.2 17 Noroeste 32 Noroeste 0.7 -- -- 93
2019-06-05 05:00:00 11.6 15 Noroeste 36 Noroeste 1.3 -- -- 88
2019-06-05 04:00:00 12.3 15 Noroeste 33 Noroeste 0.6 -- -- 92
2019-06-05 03:00:00 12.7 15 Noroeste 21 Noroeste 0 -- -- 91
2019-06-05 02:00:00 12.6 5 Noroeste 18 Noroeste 0 -- -- 93
2019-06-05 01:00:00 12.7 0 Calma 12 Sur 0 -- -- 94
2019-06-05 00:00:00 12.3 9 Sur 11 Sur 0 -- -- 95
2019-06-04 23:00:00 12.6 0 Calma 26 Sudoeste 0.5 -- -- 91
2019-06-04 22:00:00 12.9 20 Sudoeste 27 Sudoeste 0.1 -- -- 94
2019-06-04 21:00:00 14.3 14 Sudoeste 21 Oeste 0 -- -- 90
2019-06-04 20:00:00 16.5 15 Oeste 23 Oeste 0 -- -- 69
2019-06-04 19:00:00 17.5 16 Oeste 23 Oeste 0 -- -- 67
2019-06-04 18:00:00 17.8 17 Oeste 23 Oeste 0 -- -- 71
2019-06-04 17:00:00 17 17 Oeste 28 Oeste 0 -- -- 75
2019-06-04 16:00:00 17.2 19 Oeste 31 Oeste 0 -- -- 74
2019-06-04 15:00:00 16.6 21 Oeste 30 Oeste 0 -- -- 76
2019-06-04 14:00:00 17.6 20 Oeste 28 Oeste 0 -- -- 75
2019-06-04 13:00:00 17.8 17 Oeste 24 Oeste 0 -- -- 78
2019-06-04 12:00:00 16.7 19 Oeste 26 Oeste 0 -- -- 82
2019-06-04 11:00:00 16.2 15 Oeste 23 Oeste 0 -- -- 84
2019-06-04 10:00:00 15.3 17 Oeste 26 Noroeste 0 -- -- 87
2019-06-04 09:00:00 14.2 18 Oeste 31 Oeste 0 -- -- 97
2019-06-04 08:00:00 13.9 21 Noroeste 37 Oeste 0 -- -- 99
2019-06-04 07:00:00 14.4 30 Oeste 68 Sudoeste 2.4 -- -- 99
2019-06-04 06:00:00 14.7 37 Sur 58 Sur 1.2 -- -- 99
2019-06-04 05:00:00 14.9 33 Sur 52 Sudoeste 0.1 -- -- 97
2019-06-04 04:00:00 15.6 37 Sur 53 Sur 0 -- -- 97
2019-06-04 03:00:00 15.4 30 Sur 45 Sur 0 -- -- 97
2019-06-04 02:00:00 14.7 27 Sur 37 Sur 0 -- -- 97
2019-06-04 01:00:00 14.8 26 Sur 34 Sur 0 -- -- 94
2019-06-04 00:00:00 14.8 21 Sur 28 Sur 0 -- -- 94
2019-06-03 23:00:00 14.3 19 Sur 24 Sur 0 -- -- 93
2019-06-03 22:00:00 14.5 17 Sur 23 Sudoeste 0 -- -- 92
2019-06-03 21:00:00 15.1 18 Sudoeste 25 Sudoeste 0 -- -- 90
2019-06-03 20:00:00 16.9 20 Sudoeste 26 Sudoeste 0 -- -- 90
2019-06-03 19:00:00 17.9 16 Sudoeste 19 Sudoeste 0 -- -- 87
2019-06-03 18:00:00 17.4 9 Sudoeste 12 Sudoeste 0 -- -- 90
2019-06-03 17:00:00 17.1 3 Norte 6 Norte 0 -- -- 91
2019-06-03 16:00:00 17 3 Norte 9 Norte 0 -- -- 88
2019-06-03 15:00:00 16.8 7 Norte 14 Nordeste 0 -- -- 94
2019-06-03 14:00:00 16.6 13 Nordeste 18 Nordeste 0 -- -- 97
2019-06-03 13:00:00 16.4 13 Nordeste 17 Norte 0 -- -- 99
2019-06-03 12:00:00 15.7 14 Nordeste 21 Nordeste 0 -- -- 99
2019-06-03 11:00:00 14.7 15 Nordeste 22 Nordeste 0 -- -- 99
2019-06-03 10:00:00 14.1 14 Nordeste 23 Nordeste 0 -- -- 99
2019-06-03 09:00:00 13.6 15 Nordeste 26 Nordeste 0.1 -- -- 99
2019-06-03 08:00:00 14.1 21 Norte 26 Norte 0.4 -- -- 99
2019-06-03 07:00:00 14.4 20 Nordeste 26 Norte 0.5 -- -- 99
2019-06-03 06:00:00 14.7 18 Nordeste 21 Nordeste 0.2 -- -- 99
2019-06-03 05:00:00 14.8 14 Norte 17 Norte 0.3 -- -- 99
2019-06-03 04:00:00 14.9 9 Nordeste 16 Nordeste 1 -- -- 99
2019-06-03 03:00:00 14.9 12 Nordeste 22 Nordeste 0.3 -- -- 99
2019-06-03 02:00:00 14.9 19 Nordeste 26 Nordeste 1.4 -- -- 99
2019-06-03 01:00:00 15.4 11 Norte 17 Norte 1.2 -- -- 99
2019-06-03 00:00:00 16.8 10 Sur 18 Sur 0.7 -- -- 99
2019-06-02 23:00:00 16.5 12 Sur 20 Sur 0 -- -- 99
2019-06-02 22:00:00 16.8 13 Sur 21 Sudoeste 0 -- -- 99
2019-06-02 21:00:00 16.8 16 Sur 27 Sudoeste 0 -- -- 99
2019-06-02 20:00:00 16.9 18 Sudoeste 26 Sur 0 -- -- 97
2019-06-02 19:00:00 17 18 Sudoeste 26 Sur 0 -- -- 94
2019-06-02 18:00:00 17.2 20 Sudoeste 28 Sudoeste 0 -- -- 93
2019-06-02 17:00:00 17.7 19 Sudoeste 31 Sudoeste 0 -- -- 88
2019-06-02 16:00:00 17.9 25 Sudoeste 31 Sudoeste 0 -- -- 85
2019-06-02 15:00:00 19.1 25 Sudoeste 32 Sudoeste 0 -- -- 79
2019-06-02 14:00:00 20 24 Sudoeste 31 Sudoeste 0 -- -- 76
2019-06-02 13:00:00 19.4 24 Sur 30 Sur 0 -- -- 80
2019-06-02 12:00:00 17.8 21 Sudoeste 31 Sur 0 -- -- 89
2019-06-02 11:00:00 16.5 22 Sudoeste 28 Sudoeste 0 -- -- 92
2019-06-02 10:00:00 15.8 21 Sudoeste 28 Sudoeste 0 -- -- 99
2019-06-02 09:00:00 15.1 17 Sur 27 Sur 0 -- -- 99
2019-06-02 08:00:00 14.5 21 Sur 28 Sudoeste 0 -- -- 99
2019-06-02 07:00:00 13.8 21 Sudoeste 27 Sur 0 -- -- 99
2019-06-02 06:00:00 13.8 23 Sudoeste 30 Sudoeste 0 -- -- 99
2019-06-02 05:00:00 13.8 9 Sudoeste 26 Sur 0 -- -- 99
2019-06-02 04:00:00 14.1 19 Sudoeste 26 Sudoeste 0 -- -- 99
2019-06-02 03:00:00 14.3 14 Sudoeste 21 Sudoeste 0 -- -- 99
2019-06-02 02:00:00 13.6 7 Sur 23 Sudeste 0 -- -- 99
2019-06-02 01:00:00 14.3 13 Sudoeste 19 Sudoeste 0 -- -- 99
2019-06-02 00:00:00 14.3 0 Calma 15 Sur 0 -- -- 99
2019-06-01 23:00:00 14.6 12 Sudoeste 17 Sudoeste 0 -- -- 99
2019-06-01 22:00:00 15 11 Sudoeste 14 Sudoeste 0 -- -- 99
2019-06-01 21:00:00 15.6 11 Sudoeste 17 Oeste 0 -- -- 99
2019-06-01 20:00:00 17.1 11 Oeste 20 Sudoeste 0 -- -- 96
2019-06-01 19:00:00 19.7 14 Sudoeste 27 Sudoeste 0 -- -- 90
2019-06-01 18:00:00 20.1 14 Sudoeste 22 Sudoeste 0 -- -- 79
2019-06-01 17:00:00 22.3 10 Sudoeste 15 Sudoeste 0 -- -- 69
2019-06-01 16:00:00 21.3 11 Sudoeste 18 Sudoeste 0 -- -- 79
2019-06-01 15:00:00 20.3 13 Sudoeste 19 Sudoeste 0 -- -- 82
2019-06-01 14:00:00 19.7 13 Sudoeste 20 Sudoeste 0 -- -- 84
2019-06-01 13:00:00 19.9 13 Sudoeste 18 Sudoeste 0 -- -- 80
2019-06-01 12:00:00 22.6 8 Sudoeste 10 Sudoeste 0 -- -- 60
2019-06-01 11:00:00 22.4 3 Sudoeste 7 Sudoeste 0 -- -- 60
2019-06-01 10:00:00 21.1 0 Calma -- -- 0 -- -- 74
2019-06-01 09:00:00 19.8 0 Calma -- -- 0 -- -- 81
2019-06-01 08:00:00 18.1 0 Calma -- -- 0 -- -- 78
2019-06-01 07:00:00 17.6 0 Calma 8 Sur 0 -- -- 75
2019-06-01 06:00:00 18.4 8 Sur 9 Sur 0 -- -- 67
2019-06-01 05:00:00 18.2 0 Calma 17 Sudeste 0 -- -- 67
2019-06-01 04:00:00 18.9 10 Sur 15 Sur 0 -- -- 68
2019-06-01 03:00:00 16.7 13 Sur 18 Sudoeste 0 -- -- 91
2019-06-01 02:00:00 16.6 15 Sudoeste 18 Sur 0 -- -- 86
2019-06-01 01:00:00 19.6 6 Sudoeste 14 Sudoeste 0 -- -- 58
2019-06-01 00:00:00 22.2 4 Sudeste 14 Sudeste 0 -- -- 52
2019-05-31 23:00:00 21.7 10 Sudeste 14 Sudeste 0 -- -- 53
2019-05-31 22:00:00 23.1 0 Calma 3 Este 0 -- -- 49
2019-05-31 21:00:00 23.7 0 Calma 7 Este 0 -- -- 48
2019-05-31 20:00:00 22.7 5 Nordeste 9 Nordeste 0 -- -- 57
2019-05-31 19:00:00 23.5 5 Norte 11 Oeste 0 -- -- 54
2019-05-31 18:00:00 24.8 8 Sudoeste 17 Sudoeste 0 -- -- 46
2019-05-31 17:00:00 25.5 10 Sudoeste 19 Sudoeste 0 -- -- 43
2019-05-31 16:00:00 26.1 13 Sudoeste 21 Sudoeste 0 -- -- 45
2019-05-31 15:00:00 25.5 15 Sudoeste 22 Sudoeste 0 -- -- 46
2019-05-31 14:00:00 25.7 14 Sudoeste 20 Sudoeste 0 -- -- 45
2019-05-31 13:00:00 25.7 11 Sudoeste 16 Sudoeste 0 -- -- 45
2019-05-31 12:00:00 27.7 7 Sudoeste 12 Sudoeste 0 -- -- 43
2019-05-31 11:00:00 26.9 7 Sur 13 Sur 0 -- -- 49
2019-05-31 10:00:00 22.2 13 Sur 18 Sudeste 0 -- -- 57
2019-05-31 09:00:00 23.3 8 Sudeste 24 Sudeste 0 -- -- 53
2019-05-31 08:00:00 21 9 Este 14 Este 0 -- -- 53
2019-05-31 07:00:00 19.9 7 Este 9 Este 0 -- -- 54
2019-05-31 06:00:00 19 6 Nordeste 9 Nordeste 0 -- -- 56
2019-05-31 05:00:00 18.9 5 Nordeste 8 Nordeste 0 -- -- 58
2019-05-31 04:00:00 17.1 6 Nordeste 10 Nordeste 0 -- -- 74
2019-05-31 03:00:00 19.2 5 Este 9 Este 0 -- -- 60
2019-05-31 02:00:00 17.3 7 Nordeste 11 Nordeste 0 -- -- 78
2019-05-31 01:00:00 14.7 5 Norte 15 Nordeste 0 -- -- 99
2019-05-31 00:00:00 15.1 8 Nordeste 17 Nordeste 0 -- -- 97
2019-05-30 23:00:00 15.5 9 Nordeste 17 Nordeste 0 -- -- 93
2019-05-30 22:00:00 16.2 11 Nordeste 17 Nordeste 0 -- -- 90
2019-05-30 21:00:00 17.7 10 Nordeste 17 Nordeste 0 -- -- 80
2019-05-30 20:00:00 19 12 Nordeste 22 Nordeste 0 -- -- 77
2019-05-30 19:00:00 18.5 13 Nordeste 28 Nordeste 0 -- -- 79
2019-05-30 18:00:00 19.4 20 Nordeste 26 Norte 0 -- -- 72
2019-05-30 17:00:00 21.6 12 Nordeste 24 Nordeste 0 -- -- 61
2019-05-30 16:00:00 20.3 10 Nordeste 25 Nordeste 0 -- -- 66
2019-05-30 15:00:00 19.6 4 Este 24 Nordeste 0 -- -- 70
2019-05-30 14:00:00 19 18 Nordeste 27 Nordeste 0 -- -- 74
2019-05-30 13:00:00 18.3 12 Nordeste 22 Nordeste 0 -- -- 85
2019-05-30 12:00:00 17.7 12 Nordeste 22 Nordeste 0 -- -- 87
2019-05-30 11:00:00 16.8 12 Nordeste 22 Nordeste 0 -- -- 87
2019-05-30 10:00:00 20.4 9 Este 14 Nordeste 0 -- -- 72
2019-05-30 09:00:00 17.1 3 Norte 14 Nordeste 0 -- -- 84
2019-05-30 08:00:00 15.1 14 Nordeste 22 Norte 0 -- -- 97
2019-05-30 07:00:00 14.3 8 Norte 22 Este 0 -- -- 94
2019-05-30 06:00:00 15.1 17 Este 24 Norte 0 -- -- 99
2019-05-30 05:00:00 14.2 20 Nordeste 28 Nordeste 0 -- -- 99
2019-05-30 04:00:00 14.1 18 Nordeste 26 Nordeste 0 -- -- 99
2019-05-30 03:00:00 13.9 11 Nordeste 18 Nordeste 0 -- -- 99
2019-05-30 02:00:00 13.8 15 Nordeste 23 Nordeste 0 -- -- 99
2019-05-30 01:00:00 13.9 20 Nordeste 26 Nordeste 0 -- -- 99
2019-05-30 00:00:00 14.2 22 Nordeste 25 Nordeste 0 -- -- 97
2019-05-29 23:00:00 14.5 20 Nordeste 35 Nordeste 0 -- -- 93
2019-05-29 22:00:00 14.9 22 Nordeste 42 Nordeste 0 -- -- 93
2019-05-29 21:00:00 15.2 31 Nordeste 46 Nordeste 0 -- -- 93
2019-05-29 20:00:00 15.7 27 Nordeste 47 Nordeste 0 -- -- 92
2019-05-29 19:00:00 15.6 35 Nordeste 49 Nordeste 0 -- -- 91
2019-05-29 18:00:00 15.8 42 Nordeste 50 Nordeste 0 -- -- 90
2019-05-29 17:00:00 16.3 32 Nordeste 41 Nordeste 0 -- -- 88
2019-05-29 16:00:00 16.4 35 Nordeste 45 Nordeste 0 -- -- 89
2019-05-29 15:00:00 16.4 37 Nordeste 50 Nordeste 0 -- -- 88
2019-05-29 14:00:00 16.2 43 Nordeste 54 Nordeste 0 -- -- 88
2019-05-29 13:00:00 16.2 40 Nordeste 51 Nordeste 0 -- -- 89
2019-05-29 12:00:00 15.7 36 Nordeste 40 Nordeste 0 -- -- 87
2019-05-29 11:00:00 15.8 31 Nordeste 36 Nordeste 0 -- -- 85
2019-05-29 10:00:00 15.1 27 Nordeste 36 Nordeste 0 -- -- 85
2019-05-29 09:00:00 14.2 25 Nordeste 33 Nordeste 0 -- -- 86
2019-05-29 08:00:00 13.3 24 Nordeste 37 Nordeste 0 -- -- 87
2019-05-29 07:00:00 12.7 20 Nordeste 31 Nordeste 0 -- -- 92
2019-05-29 06:00:00 12.4 19 Nordeste 28 Este 0 -- -- 95
2019-05-29 05:00:00 12.4 20 Nordeste 30 Nordeste 0 -- -- 96
2019-05-29 04:00:00 12.6 15 Nordeste 37 Nordeste 0 -- -- 95
2019-05-29 03:00:00 13.4 26 Nordeste 42 Nordeste 0 -- -- 92
2019-05-29 02:00:00 13.5 23 Nordeste 40 Nordeste 0 -- -- 91
2019-05-29 01:00:00 13.6 25 Nordeste 41 Nordeste 0 -- -- 92
2019-05-29 00:00:00 13.8 33 Nordeste 45 Nordeste 0 -- -- 92
2019-05-28 23:00:00 13.8 35 Nordeste 47 Nordeste 0 -- -- 90
2019-05-28 22:00:00 13.9 37 Nordeste 44 Nordeste 0 -- -- 88
2019-05-28 21:00:00 14.4 33 Nordeste 47 Nordeste 0 -- -- 87
2019-05-28 20:00:00 14.8 41 Nordeste 48 Nordeste 0 -- -- 82
2019-05-28 19:00:00 15.4 37 Nordeste 45 Norte 0 -- -- 81
2019-05-28 18:00:00 15.7 37 Nordeste 44 Nordeste 0 -- -- 81
2019-05-28 17:00:00 16.1 34 Nordeste 41 Nordeste 0 -- -- 78
2019-05-28 16:00:00 16.3 34 Nordeste 41 Nordeste 0 -- -- 78
2019-05-28 15:00:00 16.3 33 Nordeste 41 Nordeste 0 -- -- 77
2019-05-28 14:00:00 16.3 34 Nordeste 103 Nordeste 0 -- -- 78
2019-05-28 13:00:00 15.9 36 Nordeste 43 Nordeste 0 -- -- 78
2019-05-28 12:00:00 15.5 37 Nordeste 43 Nordeste 0 -- -- 81
2019-05-28 11:00:00 14.8 33 Nordeste 38 Nordeste 0 -- -- 87
2019-05-28 10:00:00 14.7 33 Nordeste 41 Nordeste 0 -- -- 90
2019-05-28 09:00:00 13.6 33 Nordeste 41 Nordeste 0 -- -- 98
2019-05-28 08:00:00 13.4 32 Nordeste 39 Nordeste 0 -- -- 98
2019-05-28 07:00:00 13.1 27 Nordeste 41 Nordeste 0 -- -- 98
2019-05-28 06:00:00 13.2 34 Nordeste 41 Nordeste 0 -- -- 96
2019-05-28 05:00:00 13.2 32 Nordeste 36 Norte 0 -- -- 96
2019-05-28 04:00:00 13.1 32 Nordeste 40 Nordeste 0 -- -- 95
2019-05-28 03:00:00 13.2 33 Nordeste 41 Nordeste 0 -- -- 95
2019-05-28 02:00:00 13.2 35 Nordeste 45 Nordeste 0 -- -- 94
2019-05-28 01:00:00 13.3 36 Nordeste 44 Nordeste 0 -- -- 94
2019-05-28 00:00:00 13.3 40 Nordeste 46 Nordeste 0 -- -- 91
2019-05-27 23:00:00 13.5 36 Nordeste 44 Nordeste 0 -- -- 89
2019-05-27 22:00:00 13.5 35 Nordeste 44 Nordeste 0 -- -- 88
2019-05-27 21:00:00 13.8 37 Nordeste 44 Nordeste 0 -- -- 85
2019-05-27 20:00:00 14.3 39 Nordeste 45 Nordeste 0 -- -- 80
2019-05-27 19:00:00 14.7 37 Nordeste 43 Nordeste 0 -- -- 78
2019-05-27 18:00:00 14.7 35 Nordeste 40 Nordeste 0 -- -- 78
2019-05-27 17:00:00 15 33 Nordeste 39 Nordeste 0 -- -- 79
2019-05-27 16:00:00 15.4 31 Nordeste 40 Nordeste 0 -- -- 80
2019-05-27 15:00:00 14.6 32 Nordeste 40 Nordeste 0 -- -- 86
2019-05-27 14:00:00 14.1 33 Nordeste 41 Nordeste 0 -- -- 94
2019-05-27 13:00:00 13.7 33 Norte 41 Norte 0 -- -- 99
2019-05-27 12:00:00 14.5 26 Norte 34 Norte 0 -- -- 99
2019-05-27 11:00:00 14.2 24 Nordeste 31 Norte 0 -- -- 99
2019-05-27 10:00:00 13.9 24 Norte 35 Norte 0 -- -- 99
2019-05-27 09:00:00 13.8 24 Norte 34 Norte 0 -- -- 99
2019-05-27 08:00:00 14.2 19 Nordeste 29 Nordeste 0.1 -- -- 99
2019-05-27 07:00:00 14.1 4 Norte 8 Norte 0.1 -- -- 99
2019-05-27 06:00:00 14.3 0 Calma 2 Noroeste 0 -- -- 99
2019-05-27 05:00:00 14.3 0 Calma 2 Sudeste 0 -- -- 99
2019-05-27 04:00:00 14.3 0 Calma 5 Nordeste 0 -- -- 99
2019-05-27 03:00:00 14.3 3 Nordeste 10 Nordeste 0 -- -- 99
2019-05-27 02:00:00 13.9 8 Nordeste 17 Este 0 -- -- 99
2019-05-27 01:00:00 14 12 Nordeste 22 Nordeste 0 -- -- 99
2019-05-27 00:00:00 14.1 19 Nordeste 26 Nordeste 0 -- -- 97
2019-05-26 23:00:00 14.3 20 Nordeste 27 Nordeste 0 -- -- 97
2019-05-26 22:00:00 14.1 21 Nordeste 27 Nordeste 0 -- -- 97
2019-05-26 21:00:00 14.2 24 Nordeste 29 Nordeste 0 -- -- 95
2019-05-26 20:00:00 14.3 26 Nordeste 33 Nordeste 0 -- -- 90
2019-05-26 19:00:00 15 24 Nordeste 35 Nordeste 0 -- -- 87
2019-05-26 18:00:00 15.2 28 Nordeste 33 Nordeste 0 -- -- 82
2019-05-26 17:00:00 16 27 Nordeste 37 Nordeste 0 -- -- 80
2019-05-26 16:00:00 16 29 Nordeste 34 Nordeste 0 -- -- 77
2019-05-26 15:00:00 16.4 28 Nordeste 36 Nordeste 0 -- -- 78
2019-05-26 14:00:00 16.1 29 Nordeste 36 Norte 0 -- -- 77
2019-05-26 13:00:00 16 28 Nordeste 37 Nordeste 0 -- -- 80
2019-05-26 12:00:00 15.8 27 Nordeste 35 Nordeste 0 -- -- 83
2019-05-26 11:00:00 14.9 27 Nordeste 33 Nordeste 0 -- -- 85
2019-05-26 10:00:00 14.5 27 Nordeste 33 Nordeste 0 -- -- 90
2019-05-26 09:00:00 14.1 26 Nordeste 39 Nordeste 0 -- -- 89
2019-05-26 08:00:00 14 27 Nordeste 36 Nordeste 0 -- -- 84
2019-05-26 07:00:00 13.8 30 Nordeste 42 Nordeste 0 -- -- 85
2019-05-26 06:00:00 13.8 28 Nordeste 43 Nordeste 0 -- -- 86
2019-05-26 05:00:00 13.7 31 Nordeste 39 Nordeste 0 -- -- 91
2019-05-26 04:00:00 13.5 32 Nordeste 40 Nordeste 0 -- -- 97
2019-05-26 03:00:00 13.6 33 Nordeste 41 Nordeste 0 -- -- 99
2019-05-26 02:00:00 13.9 32 Nordeste 41 Nordeste 0 -- -- 98
2019-05-26 01:00:00 13.8 32 Nordeste 40 Nordeste 0 -- -- 99
2019-05-26 00:00:00 13.8 33 Nordeste 40 Nordeste 0 -- -- 99